KDRO/DRO METAR and TAF weather

Enter ICAO airport designator
Station Type Date Time Source
KDRO METAR 2020/07/03 13:53 UTC NOAA

KDRO 031353Z AUTO 32004KT 10SM FEW110 19/02 A3028 RMK AO2 SLP152 T01890022


Station Type Date Time Source
KDRO Decoded METAR 2020/07/03 13:53 UTC NOAA

DURANGO-LA PLATA COUNTY AIRPORT , CO, United States (KDRO) 37-09N 107-46W 2035M
Jul 03, 2020 - 09:53 AM EDT / 2020.07.03 1353 UTC
Wind: from the NW (320 degrees) at 5 MPH (4 KT):0
Visibility: 10 mile(s):0
Sky conditions: mostly clear
Temperature: 66.0 F (18.9 C)
Dew Point: 36.0 F (2.2 C)
Relative Humidity: 32%
Pressure (altimeter): 30.28 in. Hg (1025 hPa)
ob: KDRO 031353Z AUTO 32004KT 10SM FEW110 19/02 A3028 RMK AO2 SLP152 T01890022
cycle: 14

Station Type Date Time Source
KDRO TAF 2020/07/03 12:27 UTC NOAA

KDRO 031125Z 0312/0412 VRB04KT P6SM SCT120
FM031500 VRB04KT P6SM SCT100 BKN180
FM031900 25006KT P6SM SCT100 BKN120
FM032100 25010G18KT P6SM SCT100
FM032300 30010G18KT P6SM SCT100
FM040200 30008KT P6SM SCT090

Example: see airport list